createdAt,value
2022-09-20T00:01:43.926Z,34.20
2022-09-20T00:04:12.345Z,18.80
2022-09-20T00:06:40.772Z,28.40
2022-09-20T00:09:09.174Z,31.20
2022-09-20T00:11:39.641Z,30.60
2022-09-20T00:14:10.120Z,28.00
2022-09-20T00:16:41.373Z,34.60
2022-09-20T00:19:10.064Z,31.00
2022-09-20T00:21:38.520Z,25.80
2022-09-20T00:24:07.416Z,20.20
2022-09-20T00:26:35.747Z,27.80
2022-09-20T00:29:04.105Z,19.40
2022-09-20T00:31:32.533Z,24.60
2022-09-20T00:34:16.056Z,16.80
2022-09-20T00:36:44.492Z,6.60
2022-09-20T00:39:13.626Z,6.00
2022-09-20T00:41:42.967Z,5.00
2022-09-20T00:44:42.822Z,3.80
2022-09-20T00:47:14.658Z,6.00
2022-09-20T00:49:44.361Z,6.00
2022-09-20T00:52:12.749Z,4.00
2022-09-20T00:54:41.050Z,6.00
2022-09-20T00:57:11.357Z,12.40
2022-09-20T00:59:41.049Z,6.40
2022-09-20T01:02:11.397Z,18.40
2022-09-20T01:04:40.263Z,17.60
2022-09-20T01:07:10.722Z,17.20
2022-09-20T01:09:40.924Z,20.40
2022-09-20T01:12:12.919Z,26.60
2022-09-20T01:14:41.342Z,24.80
2022-09-20T01:17:09.690Z,21.00
2022-09-20T01:19:41.128Z,19.20
2022-09-20T01:22:24.333Z,24.00
2022-09-20T01:24:56.305Z,24.00
2022-09-20T01:27:25.267Z,23.40
2022-09-20T01:30:02.603Z,20.25
2022-09-20T01:32:35.562Z,23.40
2022-09-20T01:35:03.938Z,17.20
2022-09-20T01:37:35.265Z,20.20
2022-09-20T01:40:05.512Z,24.20
2022-09-20T01:42:35.047Z,16.00
2022-09-20T01:45:09.306Z,18.00
2022-09-20T01:47:40.429Z,17.40
2022-09-20T01:50:29.773Z,23.20
2022-09-20T01:53:15.665Z,20.60
2022-09-20T01:55:53.125Z,18.00
2022-09-20T01:58:41.175Z,11.20
2022-09-20T02:01:27.152Z,15.20
2022-09-20T02:04:07.368Z,12.00
2022-09-20T02:06:49.022Z,17.20
2022-09-20T02:09:28.296Z,12.40
2022-09-20T02:12:08.358Z,11.20
2022-09-20T02:14:40.436Z,7.40
2022-09-20T02:17:14.877Z,9.60
2022-09-20T02:19:53.293Z,9.20
2022-09-20T02:22:29.870Z,12.00
2022-09-20T02:25:03.726Z,8.60
2022-09-20T02:27:37.552Z,7.40
2022-09-20T02:30:14.362Z,10.80
2022-09-20T02:32:55.243Z,8.60
2022-09-20T02:35:31.796Z,9.00
2022-09-20T02:38:03.374Z,9.60
2022-09-20T02:40:48.424Z,11.20
2022-09-20T02:43:23.014Z,9.40
2022-09-20T02:45:54.338Z,6.80
2022-09-20T02:48:30.850Z,9.00
2022-09-20T02:51:02.542Z,11.40
2022-09-20T02:53:37.720Z,11.20
2022-09-20T02:56:10.132Z,12.00
2022-09-20T02:58:46.787Z,9.20
2022-09-20T03:01:21.675Z,12.80
2022-09-20T03:04:05.113Z,9.40
2022-09-20T03:06:39.139Z,9.60
2022-09-20T03:09:11.256Z,9.00
2022-09-20T03:11:44.354Z,9.80
2022-09-20T03:14:16.133Z,13.80
2022-09-20T03:16:52.468Z,14.60
2022-09-20T03:19:37.258Z,12.80
2022-09-20T03:22:18.410Z,11.40
2022-09-20T03:24:54.457Z,12.60
2022-09-20T03:27:26.153Z,14.40
2022-09-20T03:30:02.769Z,13.40
2022-09-20T03:32:40.064Z,21.80
2022-09-20T03:35:21.972Z,21.20
2022-09-20T03:37:58.949Z,20.00
2022-09-20T03:40:48.569Z,13.00
2022-09-20T03:43:28.721Z,21.40
2022-09-20T03:46:04.413Z,27.00
2022-09-20T03:48:48.215Z,18.80
2022-09-20T03:51:23.887Z,21.60
2022-09-20T03:54:03.445Z,25.40
2022-09-20T03:56:41.063Z,23.80
2022-09-20T03:59:19.679Z,22.60
2022-09-20T04:02:02.819Z,25.60
2022-09-20T04:04:32.689Z,21.80
2022-09-20T04:07:10.652Z,19.40
2022-09-20T04:09:53.008Z,19.20
2022-09-20T04:12:27.310Z,21.60
2022-09-20T04:14:59.297Z,29.60
2022-09-20T04:17:32.797Z,36.00
2022-09-20T04:20:04.112Z,53.80
2022-09-20T04:22:33.969Z,53.80
2022-09-20T04:25:05.485Z,58.40
2022-09-20T04:27:35.714Z,54.20
2022-09-20T04:30:06.688Z,54.80
2022-09-20T04:32:37.816Z,63.25
2022-09-20T04:35:21.141Z,51.40
2022-09-20T04:37:51.005Z,52.00
2022-09-20T04:40:27.055Z,57.50
2022-09-20T04:43:10.988Z,53.00
2022-09-20T04:45:55.393Z,49.00
2022-09-20T04:48:40.176Z,53.00
2022-09-20T04:51:20.074Z,42.00
2022-09-20T04:53:58.537Z,39.50
2022-09-20T04:56:30.863Z,49.20
2022-09-20T04:59:10.191Z,54.40
2022-09-20T05:01:55.771Z,39.50
2022-09-20T05:04:44.587Z,40.50
2022-09-20T05:07:27.043Z,42.75
2022-09-20T05:10:15.200Z,40.50
2022-09-20T05:12:56.725Z,32.75
2022-09-20T05:15:36.484Z,39.33
2022-09-20T05:18:17.208Z,23.20
2022-09-20T05:20:49.822Z,14.60
2022-09-20T05:23:30.571Z,15.80
2022-09-20T05:26:09.924Z,16.40
2022-09-20T05:28:48.523Z,16.40
2022-09-20T05:31:19.937Z,20.60
2022-09-20T05:33:51.165Z,21.00
2022-09-20T05:36:21.968Z,18.40
2022-09-20T05:38:51.868Z,25.20
2022-09-20T05:41:25.355Z,28.60
2022-09-20T05:43:56.458Z,21.80
2022-09-20T05:46:34.630Z,16.00
2022-09-20T05:49:14.622Z,32.20
2022-09-20T05:51:53.780Z,24.40
2022-09-20T05:54:37.001Z,26.60
2022-09-20T05:57:16.536Z,27.60
2022-09-20T05:59:53.369Z,26.60
2022-09-20T06:02:29.789Z,34.80
2022-09-20T06:05:01.906Z,25.40
2022-09-20T06:07:38.253Z,31.00
2022-09-20T06:10:28.325Z,30.00
2022-09-20T06:13:01.991Z,29.20
2022-09-20T06:15:34.505Z,21.80
2022-09-20T06:18:07.605Z,32.00
2022-09-20T06:20:38.772Z,20.00
2022-09-20T06:23:07.131Z,16.40
2022-09-20T06:25:43.130Z,20.00
2022-09-20T06:28:15.653Z,21.80
2022-09-20T06:30:45.920Z,25.00
2022-09-20T06:33:17.674Z,27.00
2022-09-20T06:35:49.435Z,26.20
2022-09-20T06:38:42.069Z,23.20
2022-09-20T06:41:24.644Z,24.00
2022-09-20T06:44:00.286Z,20.60
2022-09-20T06:46:30.165Z,11.00
2022-09-20T06:48:58.658Z,16.00
2022-09-20T06:51:31.492Z,16.40
2022-09-20T06:54:05.284Z,17.60
2022-09-20T06:56:36.948Z,20.80
2022-09-20T06:59:10.602Z,17.20
2022-09-20T07:01:39.063Z,19.00
2022-09-20T07:04:07.616Z,15.80
2022-09-20T07:06:36.023Z,17.40
2022-09-20T07:09:07.661Z,14.20
2022-09-20T07:11:36.126Z,21.00
2022-09-20T07:16:53.071Z,21.00
2022-09-20T07:19:22.959Z,12.60
2022-09-20T07:21:51.873Z,19.00
2022-09-20T07:24:22.881Z,20.00
2022-09-20T07:26:56.584Z,23.60
2022-09-20T07:29:24.896Z,16.00
2022-09-20T07:31:55.268Z,18.20
2022-09-20T07:34:24.285Z,6.00
2022-09-20T07:36:52.743Z,21.80
2022-09-20T07:39:21.186Z,19.40
2022-09-20T07:41:51.396Z,7.00
2022-09-20T07:44:24.615Z,11.60
2022-09-20T07:46:56.000Z,18.20
2022-09-20T07:49:24.384Z,11.80
2022-09-20T07:51:52.824Z,16.20
2022-09-20T07:54:22.155Z,27.60
2022-09-20T07:56:50.659Z,14.00
2022-09-20T07:59:19.576Z,12.60
2022-09-20T08:01:47.940Z,12.40
2022-09-20T08:04:17.761Z,9.20
2022-09-20T08:09:33.089Z,15.20
2022-09-20T08:14:05.104Z,10.00
2022-09-20T08:14:50.270Z,12.20
2022-09-20T08:17:19.605Z,11.60
2022-09-20T08:19:49.411Z,9.20
2022-09-20T08:22:20.467Z,15.00
2022-09-20T08:24:48.961Z,8.80
2022-09-20T08:27:17.510Z,11.80
2022-09-20T08:29:46.068Z,13.00
2022-09-20T08:32:16.235Z,17.40
2022-09-20T08:34:49.335Z,11.20
2022-09-20T08:37:19.511Z,10.40
2022-09-20T08:39:57.811Z,11.20
2022-09-20T08:42:33.944Z,5.60
2022-09-20T08:45:05.220Z,11.60
2022-09-20T08:47:35.963Z,11.20
2022-09-20T08:50:09.513Z,7.00
2022-09-20T08:52:40.868Z,4.40
2022-09-20T08:55:17.177Z,6.20
2022-09-20T08:57:48.116Z,6.60
2022-09-20T09:00:19.107Z,8.20
2022-09-20T09:02:48.505Z,8.40
2022-09-20T09:05:35.127Z,9.00
2022-09-20T09:08:08.108Z,4.40
2022-09-20T09:10:45.636Z,5.60
2022-09-20T09:13:22.979Z,8.20
2022-09-20T09:15:55.012Z,9.80
2022-09-20T09:18:31.750Z,4.00
2022-09-20T09:21:04.412Z,4.80
2022-09-20T09:23:41.512Z,8.60
2022-09-20T09:26:34.942Z,8.60
2022-09-20T09:29:11.341Z,7.80
2022-09-20T09:31:40.040Z,12.00
2022-09-20T09:34:24.038Z,8.60
2022-09-20T09:36:52.441Z,9.00
2022-09-20T09:39:28.806Z,7.80
2022-09-20T09:41:57.563Z,13.20
2022-09-20T09:44:28.983Z,7.80
2022-09-20T09:46:59.228Z,7.00
2022-09-20T09:49:28.032Z,9.40
2022-09-20T09:52:04.530Z,4.00
2022-09-20T09:54:36.603Z,6.40
2022-09-20T09:57:20.269Z,3.25
2022-09-20T09:59:56.409Z,3.00
2022-09-20T10:02:34.306Z,3.40
2022-09-20T10:05:04.972Z,3.00
2022-09-20T10:07:36.056Z,4.00
2022-09-20T10:10:09.462Z,2.00
2022-09-20T10:12:45.907Z,4.00
2022-09-20T10:15:22.557Z,16.40
2022-09-20T10:17:53.771Z,7.00
2022-09-20T10:20:31.521Z,9.25
2022-09-20T10:23:39.254Z,6.80
2022-09-20T10:25:58.165Z,4.00
2022-09-20T10:28:35.428Z,6.00
2022-09-20T10:31:07.850Z,4.40
2022-09-20T10:33:39.748Z,6.40
2022-09-20T10:36:14.647Z,6.00
2022-09-20T10:38:45.988Z,4.40
2022-09-20T10:41:37.158Z,6.20
2022-09-20T10:44:10.835Z,14.00
2022-09-20T10:46:46.984Z,7.00
2022-09-20T10:49:39.380Z,6.00
2022-09-20T10:52:31.882Z,4.00
2022-09-20T10:55:12.159Z,5.20
2022-09-20T10:57:56.011Z,8.40
2022-09-20T11:00:24.865Z,6.20
2022-09-20T11:03:03.783Z,6.50
2022-09-20T11:05:36.027Z,5.00
2022-09-20T11:08:08.939Z,12.20
2022-09-20T11:10:38.426Z,6.00
2022-09-20T11:13:12.259Z,6.00
2022-09-20T11:15:43.672Z,7.75
2022-09-20T11:18:14.422Z,8.60
2022-09-20T11:20:45.301Z,6.00
2022-09-20T11:23:16.239Z,8.50
2022-09-20T11:25:45.828Z,7.00
2022-09-20T11:28:20.701Z,6.75
2022-09-20T11:30:59.661Z,4.00
2022-09-20T11:33:31.809Z,7.00
2022-09-20T11:36:01.126Z,6.25
2022-09-20T11:38:31.684Z,8.20
2022-09-20T11:41:02.560Z,4.00
2022-09-20T11:43:32.328Z,7.00
2022-09-20T11:46:02.293Z,6.75
2022-09-20T11:48:36.423Z,7.00
2022-09-20T11:51:21.777Z,4.50
2022-09-20T11:53:56.975Z,3.25
2022-09-20T11:56:26.291Z,3.75
2022-09-20T11:59:18.584Z,3.25
2022-09-20T12:01:47.114Z,3.75
2022-09-20T12:04:39.021Z,3.00
2022-09-20T12:07:12.415Z,3.25
2022-09-20T12:09:44.898Z,3.00
2022-09-20T12:12:16.938Z,3.00
2022-09-20T12:14:54.070Z,3.00
2022-09-20T12:17:52.617Z,3.50
2022-09-20T12:21:08.220Z,3.00
2022-09-20T12:23:46.091Z,0.75
2022-09-20T12:26:15.967Z,3.25
2022-09-20T12:28:44.988Z,4.00
2022-09-20T12:31:48.128Z,3.50
2022-09-20T12:34:37.117Z,5.00
2022-09-20T12:37:20.617Z,3.00
2022-09-20T12:39:52.746Z,3.00
2022-09-20T12:42:33.358Z,3.50
2022-09-20T12:45:04.626Z,3.00
2022-09-20T12:47:35.311Z,3.00
2022-09-20T12:50:20.181Z,4.00
2022-09-20T12:52:54.084Z,3.75
2022-09-20T12:55:33.958Z,3.00
2022-09-20T12:58:07.155Z,2.00
2022-09-20T13:00:39.154Z,3.00
2022-09-20T13:03:28.831Z,4.50
2022-09-20T13:06:25.674Z,1.00
2022-09-20T13:08:58.275Z,1.50
2022-09-20T13:11:29.092Z,2.00
2022-09-20T13:13:58.513Z,2.00
2022-09-20T13:16:30.090Z,2.00
2022-09-20T13:19:07.987Z,3.00
2022-09-20T13:21:38.293Z,1.00
2022-09-20T13:24:08.175Z,3.00
2022-09-20T13:26:44.295Z,2.00
2022-09-20T13:29:23.778Z,1.50
2022-09-20T13:31:52.380Z,1.00
2022-09-20T13:34:25.579Z,1.50
2022-09-20T13:37:03.636Z,1.50
2022-09-20T13:40:09.524Z,2.00
2022-09-20T13:42:47.788Z,3.00
2022-09-20T13:45:33.975Z,1.00
2022-09-20T13:48:02.738Z,1.00
2022-09-20T13:50:33.963Z,1.00
2022-09-20T13:53:03.261Z,0.00
2022-09-20T13:55:33.409Z,1.00
2022-09-20T14:00:52.858Z,1.50
2022-09-20T14:03:23.068Z,2.00
2022-09-20T14:05:53.932Z,3.00
2022-09-20T14:08:24.746Z,1.50
2022-09-20T14:11:04.576Z,1.50
2022-09-20T14:13:36.938Z,0.25
2022-09-20T14:16:05.794Z,1.00
2022-09-20T14:18:34.842Z,0.75
2022-09-20T14:21:05.019Z,3.00
2022-09-20T14:23:33.692Z,3.00
2022-09-20T14:26:07.670Z,1.00
2022-09-20T14:28:36.063Z,2.00
2022-09-20T14:31:08.156Z,1.50
2022-09-20T14:33:39.415Z,2.00
2022-09-20T14:36:12.418Z,2.25
2022-09-20T14:38:41.531Z,3.00
2022-09-20T14:41:10.069Z,1.00
2022-09-20T14:43:38.706Z,4.75
2022-09-20T14:46:15.454Z,3.00
2022-09-20T14:48:45.667Z,0.00
2022-09-20T14:51:25.570Z,2.00
2022-09-20T14:53:54.489Z,0.25
2022-09-20T14:56:32.439Z,3.00
2022-09-20T14:59:05.860Z,3.00
2022-09-20T15:01:38.345Z,3.00
2022-09-20T15:04:09.711Z,1.00
2022-09-20T15:06:40.732Z,1.00
2022-09-20T15:09:13.541Z,2.75
2022-09-20T15:11:42.231Z,2.00
2022-09-20T15:14:10.604Z,1.00
2022-09-20T15:16:38.981Z,3.75
2022-09-20T15:19:08.733Z,3.00
2022-09-20T15:21:40.154Z,2.50
2022-09-20T15:24:10.793Z,1.00
2022-09-20T15:26:39.204Z,0.00
2022-09-20T15:29:09.262Z,0.75
2022-09-20T15:31:56.100Z,3.00
2022-09-20T15:34:24.876Z,6.00
2022-09-20T15:36:54.374Z,3.50
2022-09-20T15:39:24.890Z,1.00
2022-09-20T15:41:54.187Z,1.50
2022-09-20T15:44:22.524Z,1.00
2022-09-20T15:46:53.406Z,2.00
2022-09-20T15:49:25.338Z,3.25
2022-09-20T15:51:56.534Z,3.00
2022-09-20T15:54:31.724Z,2.50
2022-09-20T15:57:06.713Z,2.50
2022-09-20T15:59:39.134Z,3.00
2022-09-20T16:02:09.217Z,3.00
2022-09-20T16:04:38.005Z,2.00
2022-09-20T16:07:15.783Z,1.00
2022-09-20T16:09:47.895Z,0.50
2022-09-20T16:12:22.432Z,1.00
2022-09-20T16:14:51.064Z,3.75
2022-09-20T16:17:48.386Z,3.00
2022-09-20T16:20:16.844Z,4.00
2022-09-20T16:22:47.203Z,1.00
2022-09-20T16:25:20.758Z,1.00
2022-09-20T16:27:49.137Z,2.50
2022-09-20T16:30:17.854Z,1.00
2022-09-20T16:32:46.458Z,1.00
2022-09-20T16:35:16.980Z,1.00
2022-09-20T16:37:45.724Z,1.40
2022-09-20T16:40:15.361Z,1.00
2022-09-20T16:42:52.109Z,1.00
2022-09-20T16:45:21.644Z,1.00
2022-09-20T16:47:51.603Z,1.00
2022-09-20T16:50:21.097Z,1.00
2022-09-20T16:52:49.808Z,0.50
2022-09-20T16:55:19.837Z,1.80
2022-09-20T16:57:52.103Z,1.00
2022-09-20T17:00:22.167Z,1.00
2022-09-20T17:02:51.425Z,1.40
2022-09-20T17:05:19.777Z,0.60
2022-09-20T17:08:06.380Z,1.00
2022-09-20T17:10:35.177Z,0.60
2022-09-20T17:13:07.639Z,3.00
2022-09-20T17:15:37.896Z,3.40
2022-09-20T17:18:10.296Z,1.80
2022-09-20T17:20:41.408Z,1.00
2022-09-20T17:23:13.319Z,3.20
2022-09-20T17:25:44.171Z,1.80
2022-09-20T17:31:02.338Z,1.00
2022-09-20T17:33:34.914Z,3.60
2022-09-20T17:36:06.996Z,3.20
2022-09-20T17:38:35.852Z,4.20
2022-09-20T17:41:05.706Z,1.00
2022-09-20T17:43:36.079Z,5.20
2022-09-20T17:46:07.461Z,3.80
2022-09-20T17:48:36.901Z,1.00
2022-09-20T17:51:08.176Z,3.00
2022-09-20T17:53:43.027Z,4.40
2022-09-20T17:56:11.943Z,2.60
2022-09-20T17:58:41.809Z,3.60
2022-09-20T18:01:12.835Z,8.20
2022-09-20T18:03:42.870Z,5.80
2022-09-20T18:06:34.675Z,4.00
2022-09-20T18:09:03.880Z,7.40
2022-09-20T18:11:34.500Z,3.20
2022-09-20T18:14:06.157Z,4.00
2022-09-20T18:16:37.242Z,3.40
2022-09-20T18:19:06.429Z,4.80
2022-09-20T18:21:37.082Z,6.40
2022-09-20T18:24:06.816Z,5.20
2022-09-20T18:26:35.866Z,3.80
2022-09-20T18:29:06.761Z,4.80
2022-09-20T18:31:36.322Z,3.40
2022-09-20T18:34:07.576Z,2.20
2022-09-20T18:36:51.235Z,4.00
2022-09-20T18:39:20.791Z,4.40
2022-09-20T18:41:50.643Z,6.40
2022-09-20T18:44:23.561Z,4.00
2022-09-20T18:46:55.249Z,4.00
2022-09-20T18:49:23.810Z,6.60
2022-09-20T18:51:53.978Z,4.00
2022-09-20T18:54:22.301Z,3.20
2022-09-20T18:56:51.940Z,4.00
2022-09-20T18:59:22.884Z,3.40
2022-09-20T19:02:20.869Z,3.60
2022-09-20T19:04:56.496Z,3.60
2022-09-20T19:07:28.535Z,3.00
2022-09-20T19:09:58.442Z,5.20
2022-09-20T19:12:48.476Z,4.40
2022-09-20T19:15:40.344Z,3.20
2022-09-20T19:18:20.431Z,1.80
2022-09-20T19:20:57.451Z,3.00
2022-09-20T19:23:36.013Z,4.00
2022-09-20T19:26:09.978Z,3.00
2022-09-20T19:28:38.839Z,3.00
2022-09-20T19:31:12.195Z,3.00
2022-09-20T19:33:40.813Z,4.00
2022-09-20T19:36:11.587Z,3.00
2022-09-20T19:38:46.705Z,3.00
2022-09-20T19:41:27.589Z,3.40
2022-09-20T19:44:07.099Z,3.00
2022-09-20T19:46:41.729Z,1.80
2022-09-20T19:49:14.556Z,3.60
2022-09-20T19:51:44.298Z,6.00
2022-09-20T19:54:13.606Z,3.00
2022-09-20T19:56:47.658Z,3.00
2022-09-20T19:59:17.685Z,0.60
2022-09-20T20:01:47.745Z,1.00
2022-09-20T20:04:16.957Z,6.00
2022-09-20T20:06:50.271Z,1.40
2022-09-20T20:09:20.578Z,6.00
2022-09-20T20:11:52.702Z,3.60
2022-09-20T20:14:22.845Z,1.00
2022-09-20T20:17:01.251Z,5.20
2022-09-20T20:19:43.049Z,4.00
2022-09-20T20:22:16.921Z,3.60
2022-09-20T20:24:47.559Z,4.00
2022-09-20T20:27:15.880Z,6.00
2022-09-20T20:29:44.392Z,4.00
2022-09-20T20:32:15.350Z,3.80
2022-09-20T20:34:43.675Z,1.80
2022-09-20T20:37:12.654Z,4.40
2022-09-20T20:39:41.028Z,1.00
2022-09-20T20:42:13.051Z,3.00
2022-09-20T20:44:42.823Z,1.80
2022-09-20T20:47:11.507Z,1.00
2022-09-20T20:49:41.204Z,3.00
2022-09-20T20:52:09.946Z,3.00
2022-09-20T20:54:38.245Z,3.00
2022-09-20T20:57:09.446Z,1.00
2022-09-20T20:59:37.912Z,2.80
2022-09-20T21:02:25.338Z,3.20
2022-09-20T21:04:55.129Z,3.20
2022-09-20T21:07:23.589Z,1.00
2022-09-20T21:09:51.948Z,3.00
2022-09-20T21:12:22.151Z,3.00
2022-09-20T21:14:50.536Z,1.00
2022-09-20T21:17:18.906Z,4.40
2022-09-20T21:19:47.244Z,9.00
2022-09-20T21:22:17.500Z,9.60
2022-09-20T21:24:45.962Z,12.60
2022-09-20T21:27:14.958Z,6.80
2022-09-20T21:29:43.873Z,6.20
2022-09-20T21:32:12.333Z,3.40
2022-09-20T21:34:40.775Z,10.00
2022-09-20T21:37:09.790Z,7.80
2022-09-20T21:39:58.208Z,11.80
2022-09-20T21:42:28.518Z,11.20
2022-09-20T21:44:57.070Z,9.60
2022-09-20T21:47:25.471Z,6.80
2022-09-20T21:49:53.899Z,6.40
2022-09-20T21:52:22.208Z,7.00
2022-09-20T21:54:52.026Z,9.40
2022-09-20T21:57:20.404Z,9.60
2022-09-20T21:59:49.122Z,9.40
2022-09-20T22:02:18.495Z,5.60
2022-09-20T22:04:49.976Z,6.60
2022-09-20T22:07:18.375Z,7.80
2022-09-20T22:09:47.210Z,7.80
2022-09-20T22:12:16.907Z,7.00
2022-09-20T22:14:45.353Z,6.00
2022-09-20T22:17:13.677Z,4.00
2022-09-20T22:19:42.551Z,5.20
2022-09-20T22:22:11.080Z,6.20
2022-09-20T22:24:39.475Z,6.40
2022-09-20T22:27:10.462Z,6.80
2022-09-20T22:29:40.213Z,6.00
2022-09-20T22:32:08.535Z,7.00
2022-09-20T22:34:36.877Z,6.60
2022-09-20T22:37:05.218Z,9.80
2022-09-20T22:39:33.562Z,6.60
2022-09-20T22:42:02.283Z,8.00
2022-09-20T22:44:30.605Z,7.00
2022-09-20T22:47:00.359Z,6.00
2022-09-20T22:49:28.969Z,6.20
2022-09-20T22:51:57.696Z,4.00
2022-09-20T22:54:26.530Z,3.00
2022-09-20T22:56:54.883Z,4.00
2022-09-20T22:59:23.204Z,3.60
2022-09-20T23:01:51.539Z,6.20
2022-09-20T23:04:24.698Z,4.00
2022-09-20T23:06:55.249Z,4.40
2022-09-20T23:09:24.859Z,5.80
2022-09-20T23:11:53.259Z,6.60
2022-09-20T23:14:22.106Z,3.00
2022-09-20T23:16:50.708Z,5.40
2022-09-20T23:19:20.464Z,5.60
2022-09-20T23:21:48.899Z,3.20
2022-09-20T23:24:17.396Z,4.00
2022-09-20T23:26:45.862Z,4.80
2022-09-20T23:29:15.182Z,4.80
2022-09-20T23:31:46.079Z,2.60
2022-09-20T23:34:14.959Z,6.80
2022-09-20T23:36:44.891Z,4.00
2022-09-20T23:39:13.649Z,4.00
2022-09-20T23:41:45.799Z,4.40
2022-09-20T23:44:16.877Z,5.20
2022-09-20T23:46:45.565Z,4.00
2022-09-20T23:49:13.887Z,4.80
2022-09-20T23:51:42.206Z,5.60
2022-09-20T23:54:11.919Z,4.00
2022-09-20T23:56:40.420Z,3.40
2022-09-20T23:59:09.035Z,1.00
